sensor_id;sensor_type;location;lat;lon;timestamp;P1;durP1;ratioP1;P2;durP2;ratioP2
10347;SDS011;5220;43.192;23.284;2023-03-01T00:02:26;22.40;;;9.17;;
10347;SDS011;5220;43.192;23.284;2023-03-01T00:04:54;25.95;;;7.35;;
10347;SDS011;5220;43.192;23.284;2023-03-01T00:07:21;41.20;;;9.67;;
10347;SDS011;5220;43.192;23.284;2023-03-01T00:09:48;78.90;;;10.95;;
10347;SDS011;5220;43.192;23.284;2023-03-01T00:12:14;30.75;;;7.63;;
10347;SDS011;5220;43.192;23.284;2023-03-01T00:14:41;53.73;;;7.17;;
10347;SDS011;5220;43.192;23.284;2023-03-01T00:17:08;91.83;;;9.73;;
10347;SDS011;5220;43.192;23.284;2023-03-01T00:19:34;131.60;;;11.82;;
10347;SDS011;5220;43.192;23.284;2023-03-01T00:22:02;144.27;;;12.07;;
10347;SDS011;5220;43.192;23.284;2023-03-01T00:24:29;143.82;;;11.63;;
10347;SDS011;5220;43.192;23.284;2023-03-01T00:26:56;92.10;;;9.53;;
10347;SDS011;5220;43.192;23.284;2023-03-01T00:29:23;25.40;;;7.37;;
10347;SDS011;5220;43.192;23.284;2023-03-01T00:31:50;32.70;;;7.13;;
10347;SDS011;5220;43.192;23.284;2023-03-01T00:34:17;100.50;;;9.70;;
10347;SDS011;5220;43.192;23.284;2023-03-01T00:36:44;47.07;;;6.67;;
10347;SDS011;5220;43.192;23.284;2023-03-01T00:39:12;93.00;;;9.33;;
10347;SDS011;5220;43.192;23.284;2023-03-01T00:41:40;74.43;;;8.50;;
10347;SDS011;5220;43.192;23.284;2023-03-01T00:44:08;10.50;;;6.33;;
10347;SDS011;5220;43.192;23.284;2023-03-01T00:46:35;31.13;;;6.80;;
10347;SDS011;5220;43.192;23.284;2023-03-01T00:49:01;10.07;;;6.00;;
10347;SDS011;5220;43.192;23.284;2023-03-01T00:51:29;11.97;;;5.67;;
10347;SDS011;5220;43.192;23.284;2023-03-01T00:53:57;13.77;;;4.77;;
10347;SDS011;5220;43.192;23.284;2023-03-01T00:56:26;12.80;;;5.70;;
10347;SDS011;5220;43.192;23.284;2023-03-01T00:58:53;54.28;;;6.43;;
10347;SDS011;5220;43.192;23.284;2023-03-01T01:01:22;11.55;;;5.50;;
10347;SDS011;5220;43.192;23.284;2023-03-01T01:03:53;38.20;;;5.83;;
10347;SDS011;5220;43.192;23.284;2023-03-01T01:06:22;32.50;;;6.07;;
10347;SDS011;5220;43.192;23.284;2023-03-01T01:08:51;41.87;;;6.13;;
10347;SDS011;5220;43.192;23.284;2023-03-01T01:11:19;63.05;;;7.20;;
10347;SDS011;5220;43.192;23.284;2023-03-01T01:13:48;34.90;;;5.97;;
10347;SDS011;5220;43.192;23.284;2023-03-01T01:16:16;54.40;;;6.10;;
10347;SDS011;5220;43.192;23.284;2023-03-01T01:18:44;5.23;;;4.43;;
10347;SDS011;5220;43.192;23.284;2023-03-01T01:21:12;5.22;;;3.92;;
10347;SDS011;5220;43.192;23.284;2023-03-01T01:23:40;7.75;;;3.95;;
10347;SDS011;5220;43.192;23.284;2023-03-01T01:26:09;9.07;;;5.15;;
10347;SDS011;5220;43.192;23.284;2023-03-01T01:28:37;15.38;;;4.65;;
10347;SDS011;5220;43.192;23.284;2023-03-01T01:31:05;28.92;;;5.97;;
10347;SDS011;5220;43.192;23.284;2023-03-01T01:33:33;20.55;;;5.35;;
10347;SDS011;5220;43.192;23.284;2023-03-01T01:36:00;8.97;;;4.97;;
10347;SDS011;5220;43.192;23.284;2023-03-01T01:38:28;8.30;;;5.13;;
10347;SDS011;5220;43.192;23.284;2023-03-01T01:40:54;6.07;;;4.07;;
10347;SDS011;5220;43.192;23.284;2023-03-01T01:43:22;4.47;;;4.00;;
10347;SDS011;5220;43.192;23.284;2023-03-01T01:45:50;4.43;;;3.67;;
10347;SDS011;5220;43.192;23.284;2023-03-01T01:48:20;8.60;;;3.60;;
10347;SDS011;5220;43.192;23.284;2023-03-01T01:50:50;9.93;;;5.03;;
10347;SDS011;5220;43.192;23.284;2023-03-01T01:53:21;4.78;;;4.25;;
10347;SDS011;5220;43.192;23.284;2023-03-01T01:55:49;4.60;;;3.93;;
10347;SDS011;5220;43.192;23.284;2023-03-01T01:58:19;3.85;;;3.50;;
10347;SDS011;5220;43.192;23.284;2023-03-01T02:00:48;4.57;;;4.07;;
10347;SDS011;5220;43.192;23.284;2023-03-01T02:03:17;3.95;;;3.58;;
10347;SDS011;5220;43.192;23.284;2023-03-01T02:05:50;8.88;;;7.07;;
10347;SDS011;5220;43.192;23.284;2023-03-01T02:08:22;15.67;;;10.93;;
10347;SDS011;5220;43.192;23.284;2023-03-01T02:10:52;6.78;;;5.95;;
10347;SDS011;5220;43.192;23.284;2023-03-01T02:13:21;6.38;;;5.60;;
10347;SDS011;5220;43.192;23.284;2023-03-01T02:15:48;5.27;;;4.77;;
10347;SDS011;5220;43.192;23.284;2023-03-01T02:18:16;5.03;;;4.53;;
10347;SDS011;5220;43.192;23.284;2023-03-01T02:20:49;4.20;;;2.70;;
10347;SDS011;5220;43.192;23.284;2023-03-01T02:23:31;4.17;;;3.77;;
10347;SDS011;5220;43.192;23.284;2023-03-01T02:26:01;2.90;;;2.70;;
10347;SDS011;5220;43.192;23.284;2023-03-01T02:28:34;3.90;;;3.45;;
10347;SDS011;5220;43.192;23.284;2023-03-01T02:31:03;5.50;;;2.80;;
10347;SDS011;5220;43.192;23.284;2023-03-01T02:33:49;2.75;;;2.55;;
10347;SDS011;5220;43.192;23.284;2023-03-01T02:36:18;2.70;;;2.50;;
10347;SDS011;5220;43.192;23.284;2023-03-01T02:38:46;3.93;;;3.33;;
10347;SDS011;5220;43.192;23.284;2023-03-01T02:41:15;5.68;;;3.22;;
10347;SDS011;5220;43.192;23.284;2023-03-01T02:43:44;4.57;;;3.90;;
10347;SDS011;5220;43.192;23.284;2023-03-01T02:46:14;3.00;;;2.70;;
10347;SDS011;5220;43.192;23.284;2023-03-01T02:48:43;3.40;;;3.10;;
10347;SDS011;5220;43.192;23.284;2023-03-01T02:51:24;3.30;;;3.00;;
10347;SDS011;5220;43.192;23.284;2023-03-01T02:54:12;3.45;;;3.15;;
10347;SDS011;5220;43.192;23.284;2023-03-01T02:56:47;3.33;;;3.03;;
10347;SDS011;5220;43.192;23.284;2023-03-01T02:59:16;5.30;;;4.10;;
10347;SDS011;5220;43.192;23.284;2023-03-01T03:01:45;7.47;;;4.60;;
10347;SDS011;5220;43.192;23.284;2023-03-01T03:04:13;5.75;;;3.78;;
10347;SDS011;5220;43.192;23.284;2023-03-01T03:06:43;9.55;;;4.88;;
10347;SDS011;5220;43.192;23.284;2023-03-01T03:09:10;7.55;;;4.70;;
10347;SDS011;5220;43.192;23.284;2023-03-01T03:11:37;7.60;;;4.50;;
10347;SDS011;5220;43.192;23.284;2023-03-01T03:14:06;6.85;;;4.68;;
10347;SDS011;5220;43.192;23.284;2023-03-01T03:16:40;5.95;;;3.72;;
10347;SDS011;5220;43.192;23.284;2023-03-01T03:19:07;4.80;;;3.88;;
10347;SDS011;5220;43.192;23.284;2023-03-01T03:21:34;8.27;;;4.90;;
10347;SDS011;5220;43.192;23.284;2023-03-01T03:24:01;10.23;;;6.55;;
10347;SDS011;5220;43.192;23.284;2023-03-01T03:26:27;5.22;;;4.50;;
10347;SDS011;5220;43.192;23.284;2023-03-01T03:28:54;5.75;;;4.85;;
10347;SDS011;5220;43.192;23.284;2023-03-01T03:31:22;4.20;;;3.65;;
10347;SDS011;5220;43.192;23.284;2023-03-01T03:33:50;5.65;;;4.03;;
10347;SDS011;5220;43.192;23.284;2023-03-01T03:36:17;5.25;;;4.25;;
10347;SDS011;5220;43.192;23.284;2023-03-01T03:38:45;6.90;;;5.10;;
10347;SDS011;5220;43.192;23.284;2023-03-01T03:41:12;6.55;;;3.88;;
10347;SDS011;5220;43.192;23.284;2023-03-01T03:43:39;3.80;;;3.22;;
10347;SDS011;5220;43.192;23.284;2023-03-01T03:46:07;3.47;;;2.67;;
10347;SDS011;5220;43.192;23.284;2023-03-01T03:48:35;2.40;;;2.20;;
10347;SDS011;5220;43.192;23.284;2023-03-01T03:51:05;2.78;;;2.40;;
10347;SDS011;5220;43.192;23.284;2023-03-01T03:53:32;3.13;;;2.60;;
10347;SDS011;5220;43.192;23.284;2023-03-01T03:55:59;3.30;;;2.90;;
10347;SDS011;5220;43.192;23.284;2023-03-01T03:58:26;2.83;;;2.60;;
10347;SDS011;5220;43.192;23.284;2023-03-01T04:00:53;4.57;;;4.10;;
10347;SDS011;5220;43.192;23.284;2023-03-01T04:03:22;14.95;;;10.68;;
10347;SDS011;5220;43.192;23.284;2023-03-01T04:05:50;200.80;;;125.75;;
10347;SDS011;5220;43.192;23.284;2023-03-01T04:08:19;86.22;;;53.65;;
10347;SDS011;5220;43.192;23.284;2023-03-01T04:10:48;92.73;;;60.23;;
10347;SDS011;5220;43.192;23.284;2023-03-01T04:13:17;11.40;;;8.23;;
10347;SDS011;5220;43.192;23.284;2023-03-01T04:15:45;9.60;;;7.03;;
10347;SDS011;5220;43.192;23.284;2023-03-01T04:18:13;5.55;;;4.82;;
10347;SDS011;5220;43.192;23.284;2023-03-01T04:20:41;7.20;;;5.30;;
10347;SDS011;5220;43.192;23.284;2023-03-01T04:23:11;5.93;;;5.32;;
10347;SDS011;5220;43.192;23.284;2023-03-01T04:25:42;6.50;;;5.27;;
10347;SDS011;5220;43.192;23.284;2023-03-01T04:28:14;5.80;;;4.80;;
10347;SDS011;5220;43.192;23.284;2023-03-01T04:30:41;6.15;;;4.85;;
10347;SDS011;5220;43.192;23.284;2023-03-01T04:33:08;7.72;;;6.35;;
10347;SDS011;5220;43.192;23.284;2023-03-01T04:35:36;6.35;;;5.50;;
10347;SDS011;5220;43.192;23.284;2023-03-01T04:38:03;6.43;;;5.57;;
10347;SDS011;5220;43.192;23.284;2023-03-01T04:40:31;9.43;;;5.60;;
10347;SDS011;5220;43.192;23.284;2023-03-01T04:42:59;10.63;;;7.25;;
10347;SDS011;5220;43.192;23.284;2023-03-01T04:45:26;9.15;;;7.05;;
10347;SDS011;5220;43.192;23.284;2023-03-01T04:47:53;11.95;;;9.10;;
10347;SDS011;5220;43.192;23.284;2023-03-01T04:50:23;8.50;;;6.73;;
10347;SDS011;5220;43.192;23.284;2023-03-01T04:52:50;7.28;;;5.68;;
10347;SDS011;5220;43.192;23.284;2023-03-01T04:55:18;6.63;;;5.93;;
10347;SDS011;5220;43.192;23.284;2023-03-01T04:57:45;8.80;;;7.93;;
10347;SDS011;5220;43.192;23.284;2023-03-01T05:00:13;7.70;;;6.90;;
10347;SDS011;5220;43.192;23.284;2023-03-01T05:02:47;8.93;;;6.67;;
10347;SDS011;5220;43.192;23.284;2023-03-01T05:05:22;15.52;;;11.95;;
10347;SDS011;5220;43.192;23.284;2023-03-01T05:07:54;35.93;;;25.17;;
10347;SDS011;5220;43.192;23.284;2023-03-01T05:10:22;21.85;;;16.58;;
10347;SDS011;5220;43.192;23.284;2023-03-01T05:12:50;9.65;;;8.07;;
10347;SDS011;5220;43.192;23.284;2023-03-01T05:15:19;10.47;;;9.33;;
10347;SDS011;5220;43.192;23.284;2023-03-01T05:17:47;19.97;;;15.03;;
10347;SDS011;5220;43.192;23.284;2023-03-01T05:20:14;12.27;;;10.87;;
10347;SDS011;5220;43.192;23.284;2023-03-01T05:22:41;8.57;;;7.40;;
10347;SDS011;5220;43.192;23.284;2023-03-01T05:25:08;8.03;;;6.50;;
10347;SDS011;5220;43.192;23.284;2023-03-01T05:27:35;7.60;;;6.83;;
10347;SDS011;5220;43.192;23.284;2023-03-01T05:30:02;7.93;;;7.13;;
10347;SDS011;5220;43.192;23.284;2023-03-01T05:32:40;4.07;;;3.67;;
10347;SDS011;5220;43.192;23.284;2023-03-01T05:35:09;3.40;;;2.70;;
10347;SDS011;5220;43.192;23.284;2023-03-01T05:37:38;5.10;;;4.43;;
10347;SDS011;5220;43.192;23.284;2023-03-01T05:40:07;4.50;;;3.97;;
10347;SDS011;5220;43.192;23.284;2023-03-01T05:42:40;5.87;;;5.27;;
10347;SDS011;5220;43.192;23.284;2023-03-01T05:45:08;6.93;;;5.80;;
10347;SDS011;5220;43.192;23.284;2023-03-01T05:47:37;9.90;;;7.15;;
10347;SDS011;5220;43.192;23.284;2023-03-01T05:50:06;8.00;;;7.20;;
10347;SDS011;5220;43.192;23.284;2023-03-01T05:52:33;5.68;;;5.18;;
10347;SDS011;5220;43.192;23.284;2023-03-01T05:55:00;5.60;;;5.10;;
10347;SDS011;5220;43.192;23.284;2023-03-01T05:57:27;9.43;;;6.10;;
10347;SDS011;5220;43.192;23.284;2023-03-01T05:59:55;6.07;;;5.47;;
10347;SDS011;5220;43.192;23.284;2023-03-01T06:02:21;6.25;;;5.40;;
10347;SDS011;5220;43.192;23.284;2023-03-01T06:04:48;5.47;;;4.97;;
10347;SDS011;5220;43.192;23.284;2023-03-01T06:07:16;5.70;;;4.82;;
10347;SDS011;5220;43.192;23.284;2023-03-01T06:09:43;6.35;;;5.60;;
10347;SDS011;5220;43.192;23.284;2023-03-01T06:12:10;9.80;;;8.90;;
10347;SDS011;5220;43.192;23.284;2023-03-01T06:14:36;9.30;;;7.50;;
10347;SDS011;5220;43.192;23.284;2023-03-01T06:17:03;11.68;;;10.40;;
10347;SDS011;5220;43.192;23.284;2023-03-01T06:19:30;13.85;;;10.45;;
10347;SDS011;5220;43.192;23.284;2023-03-01T06:21:56;12.02;;;8.40;;
10347;SDS011;5220;43.192;23.284;2023-03-01T06:24:24;11.73;;;9.07;;
10347;SDS011;5220;43.192;23.284;2023-03-01T06:26:53;7.32;;;5.35;;
10347;SDS011;5220;43.192;23.284;2023-03-01T06:29:20;8.68;;;6.85;;
10347;SDS011;5220;43.192;23.284;2023-03-01T06:31:47;5.78;;;5.00;;
10347;SDS011;5220;43.192;23.284;2023-03-01T06:34:14;5.22;;;4.60;;
10347;SDS011;5220;43.192;23.284;2023-03-01T06:36:41;6.50;;;5.00;;
10347;SDS011;5220;43.192;23.284;2023-03-01T06:39:07;5.20;;;4.70;;
10347;SDS011;5220;43.192;23.284;2023-03-01T06:41:35;5.13;;;4.30;;
10347;SDS011;5220;43.192;23.284;2023-03-01T06:44:02;5.18;;;4.55;;
10347;SDS011;5220;43.192;23.284;2023-03-01T06:46:29;9.00;;;7.90;;
10347;SDS011;5220;43.192;23.284;2023-03-01T06:48:56;8.07;;;7.28;;
10347;SDS011;5220;43.192;23.284;2023-03-01T06:51:23;5.90;;;5.18;;
10347;SDS011;5220;43.192;23.284;2023-03-01T06:53:50;13.68;;;12.00;;
10347;SDS011;5220;43.192;23.284;2023-03-01T06:56:17;10.65;;;9.35;;
10347;SDS011;5220;43.192;23.284;2023-03-01T06:58:45;5.20;;;4.70;;
10347;SDS011;5220;43.192;23.284;2023-03-01T07:01:11;3.80;;;3.50;;
10347;SDS011;5220;43.192;23.284;2023-03-01T07:03:38;4.57;;;4.05;;
10347;SDS011;5220;43.192;23.284;2023-03-01T07:06:05;4.50;;;4.03;;
10347;SDS011;5220;43.192;23.284;2023-03-01T07:08:32;6.53;;;5.43;;
10347;SDS011;5220;43.192;23.284;2023-03-01T07:10:58;10.60;;;7.55;;
10347;SDS011;5220;43.192;23.284;2023-03-01T07:13:27;15.18;;;13.57;;
10347;SDS011;5220;43.192;23.284;2023-03-01T07:15:55;12.23;;;11.02;;
10347;SDS011;5220;43.192;23.284;2023-03-01T07:18:21;8.93;;;7.78;;
10347;SDS011;5220;43.192;23.284;2023-03-01T07:20:48;5.80;;;4.75;;
10347;SDS011;5220;43.192;23.284;2023-03-01T07:23:15;4.22;;;3.83;;
10347;SDS011;5220;43.192;23.284;2023-03-01T07:25:41;6.57;;;5.78;;
10347;SDS011;5220;43.192;23.284;2023-03-01T07:28:08;7.93;;;6.43;;
10347;SDS011;5220;43.192;23.284;2023-03-01T07:30:35;7.38;;;6.40;;
10347;SDS011;5220;43.192;23.284;2023-03-01T07:33:03;7.00;;;5.65;;
10347;SDS011;5220;43.192;23.284;2023-03-01T07:35:29;5.80;;;4.57;;
10347;SDS011;5220;43.192;23.284;2023-03-01T07:37:58;13.95;;;9.60;;
10347;SDS011;5220;43.192;23.284;2023-03-01T07:40:25;8.73;;;7.47;;
10347;SDS011;5220;43.192;23.284;2023-03-01T07:42:54;7.03;;;6.07;;
10347;SDS011;5220;43.192;23.284;2023-03-01T07:45:22;6.95;;;5.57;;
10347;SDS011;5220;43.192;23.284;2023-03-01T07:47:49;3.92;;;3.33;;
10347;SDS011;5220;43.192;23.284;2023-03-01T07:50:19;8.30;;;6.95;;
10347;SDS011;5220;43.192;23.284;2023-03-01T07:52:46;9.20;;;7.97;;
10347;SDS011;5220;43.192;23.284;2023-03-01T07:55:13;8.75;;;6.00;;
10347;SDS011;5220;43.192;23.284;2023-03-01T07:57:41;7.93;;;6.85;;
10347;SDS011;5220;43.192;23.284;2023-03-01T08:00:10;5.70;;;5.20;;
10347;SDS011;5220;43.192;23.284;2023-03-01T08:02:37;7.30;;;6.07;;
10347;SDS011;5220;43.192;23.284;2023-03-01T08:05:05;8.32;;;6.45;;
10347;SDS011;5220;43.192;23.284;2023-03-01T08:07:34;7.07;;;6.38;;
10347;SDS011;5220;43.192;23.284;2023-03-01T08:10:01;7.53;;;6.22;;
10347;SDS011;5220;43.192;23.284;2023-03-01T08:12:28;12.88;;;8.68;;
10347;SDS011;5220;43.192;23.284;2023-03-01T08:14:55;6.28;;;5.60;;
10347;SDS011;5220;43.192;23.284;2023-03-01T08:17:22;5.75;;;4.60;;
10347;SDS011;5220;43.192;23.284;2023-03-01T08:19:48;6.03;;;5.25;;
10347;SDS011;5220;43.192;23.284;2023-03-01T08:22:15;4.95;;;4.45;;
10347;SDS011;5220;43.192;23.284;2023-03-01T08:24:43;5.88;;;5.28;;
10347;SDS011;5220;43.192;23.284;2023-03-01T08:27:10;8.18;;;7.38;;
10347;SDS011;5220;43.192;23.284;2023-03-01T08:29:37;6.37;;;5.77;;
10347;SDS011;5220;43.192;23.284;2023-03-01T08:32:04;7.13;;;6.03;;
10347;SDS011;5220;43.192;23.284;2023-03-01T08:34:30;5.68;;;4.72;;
10347;SDS011;5220;43.192;23.284;2023-03-01T08:36:57;4.43;;;4.03;;
10347;SDS011;5220;43.192;23.284;2023-03-01T08:39:24;15.07;;;12.15;;
10347;SDS011;5220;43.192;23.284;2023-03-01T08:41:52;8.17;;;5.00;;
10347;SDS011;5220;43.192;23.284;2023-03-01T08:44:19;7.43;;;6.72;;
10347;SDS011;5220;43.192;23.284;2023-03-01T08:46:46;6.20;;;5.60;;
10347;SDS011;5220;43.192;23.284;2023-03-01T08:49:15;8.32;;;7.32;;
10347;SDS011;5220;43.192;23.284;2023-03-01T08:51:43;9.38;;;7.88;;
10347;SDS011;5220;43.192;23.284;2023-03-01T08:54:11;8.77;;;6.95;;
10347;SDS011;5220;43.192;23.284;2023-03-01T08:56:40;5.30;;;4.80;;
10347;SDS011;5220;43.192;23.284;2023-03-01T08:59:08;6.20;;;5.60;;
10347;SDS011;5220;43.192;23.284;2023-03-01T09:01:36;4.38;;;3.85;;
10347;SDS011;5220;43.192;23.284;2023-03-01T09:04:03;8.57;;;6.80;;
10347;SDS011;5220;43.192;23.284;2023-03-01T09:06:30;14.82;;;9.90;;
10347;SDS011;5220;43.192;23.284;2023-03-01T09:08:58;11.00;;;8.00;;
10347;SDS011;5220;43.192;23.284;2023-03-01T09:11:25;11.15;;;8.90;;
10347;SDS011;5220;43.192;23.284;2023-03-01T09:13:52;7.28;;;5.65;;
10347;SDS011;5220;43.192;23.284;2023-03-01T09:16:20;9.98;;;4.78;;
10347;SDS011;5220;43.192;23.284;2023-03-01T09:18:49;5.13;;;4.47;;
10347;SDS011;5220;43.192;23.284;2023-03-01T09:21:18;5.70;;;5.20;;
10347;SDS011;5220;43.192;23.284;2023-03-01T09:23:46;12.63;;;8.70;;
10347;SDS011;5220;43.192;23.284;2023-03-01T09:26:14;6.97;;;6.28;;
10347;SDS011;5220;43.192;23.284;2023-03-01T09:28:44;5.28;;;4.25;;
10347;SDS011;5220;43.192;23.284;2023-03-01T09:31:11;4.05;;;3.53;;
10347;SDS011;5220;43.192;23.284;2023-03-01T09:33:40;4.15;;;3.75;;
10347;SDS011;5220;43.192;23.284;2023-03-01T09:36:10;10.98;;;9.48;;
10347;SDS011;5220;43.192;23.284;2023-03-01T09:38:38;11.40;;;10.02;;
10347;SDS011;5220;43.192;23.284;2023-03-01T09:41:09;8.45;;;7.63;;
10347;SDS011;5220;43.192;23.284;2023-03-01T09:43:39;31.05;;;21.08;;
10347;SDS011;5220;43.192;23.284;2023-03-01T09:46:10;27.53;;;18.00;;
10347;SDS011;5220;43.192;23.284;2023-03-01T09:48:41;9.27;;;7.10;;
10347;SDS011;5220;43.192;23.284;2023-03-01T09:51:12;9.68;;;6.80;;
10347;SDS011;5220;43.192;23.284;2023-03-01T09:53:43;12.93;;;9.32;;
10347;SDS011;5220;43.192;23.284;2023-03-01T09:56:12;10.20;;;7.85;;
10347;SDS011;5220;43.192;23.284;2023-03-01T09:58:47;4.20;;;3.80;;
10347;SDS011;5220;43.192;23.284;2023-03-01T10:01:27;3.95;;;3.60;;
10347;SDS011;5220;43.192;23.284;2023-03-01T10:04:09;4.80;;;4.00;;
10347;SDS011;5220;43.192;23.284;2023-03-01T10:06:50;3.17;;;2.88;;
10347;SDS011;5220;43.192;23.284;2023-03-01T10:09:24;9.20;;;6.85;;
10347;SDS011;5220;43.192;23.284;2023-03-01T10:11:52;7.55;;;5.82;;
10347;SDS011;5220;43.192;23.284;2023-03-01T10:14:24;7.13;;;5.97;;
10347;SDS011;5220;43.192;23.284;2023-03-01T10:17:00;7.65;;;5.88;;
10347;SDS011;5220;43.192;23.284;2023-03-01T10:19:32;5.55;;;4.53;;
10347;SDS011;5220;43.192;23.284;2023-03-01T10:22:05;5.32;;;4.65;;
10347;SDS011;5220;43.192;23.284;2023-03-01T10:24:39;5.35;;;4.43;;
10347;SDS011;5220;43.192;23.284;2023-03-01T10:27:07;5.75;;;4.47;;
10347;SDS011;5220;43.192;23.284;2023-03-01T10:29:43;5.18;;;4.28;;
10347;SDS011;5220;43.192;23.284;2023-03-01T10:32:15;7.90;;;6.50;;
10347;SDS011;5220;43.192;23.284;2023-03-01T10:34:44;5.50;;;5.00;;
10347;SDS011;5220;43.192;23.284;2023-03-01T10:37:12;7.00;;;6.30;;
10347;SDS011;5220;43.192;23.284;2023-03-01T10:40:00;13.55;;;11.45;;
10347;SDS011;5220;43.192;23.284;2023-03-01T10:42:33;10.98;;;6.28;;
10347;SDS011;5220;43.192;23.284;2023-03-01T10:45:15;13.60;;;10.05;;
10347;SDS011;5220;43.192;23.284;2023-03-01T10:48:02;5.97;;;5.10;;
10347;SDS011;5220;43.192;23.284;2023-03-01T10:50:33;4.90;;;4.30;;
10347;SDS011;5220;43.192;23.284;2023-03-01T10:53:00;5.05;;;4.25;;
10347;SDS011;5220;43.192;23.284;2023-03-01T10:55:31;25.50;;;20.02;;
10347;SDS011;5220;43.192;23.284;2023-03-01T10:58:07;12.57;;;11.25;;
10347;SDS011;5220;43.192;23.284;2023-03-01T11:00:48;5.70;;;4.22;;
10347;SDS011;5220;43.192;23.284;2023-03-01T11:03:17;3.97;;;3.58;;
10347;SDS011;5220;43.192;23.284;2023-03-01T11:05:55;6.95;;;6.25;;
10347;SDS011;5220;43.192;23.284;2023-03-01T11:08:34;4.82;;;3.60;;
10347;SDS011;5220;43.192;23.284;2023-03-01T11:11:04;8.57;;;6.82;;
10347;SDS011;5220;43.192;23.284;2023-03-01T11:13:32;4.38;;;3.97;;
10347;SDS011;5220;43.192;23.284;2023-03-01T11:16:00;4.43;;;4.03;;
10347;SDS011;5220;43.192;23.284;2023-03-01T11:18:29;3.72;;;3.42;;
10347;SDS011;5220;43.192;23.284;2023-03-01T11:20:58;3.97;;;3.60;;
10347;SDS011;5220;43.192;23.284;2023-03-01T11:23:27;7.43;;;6.13;;
10347;SDS011;5220;43.192;23.284;2023-03-01T11:25:58;6.13;;;4.00;;
10347;SDS011;5220;43.192;23.284;2023-03-01T11:28:27;6.05;;;4.40;;
10347;SDS011;5220;43.192;23.284;2023-03-01T11:30:56;6.00;;;3.40;;
10347;SDS011;5220;43.192;23.284;2023-03-01T11:33:30;4.68;;;3.80;;
10347;SDS011;5220;43.192;23.284;2023-03-01T11:36:05;26.58;;;7.82;;
10347;SDS011;5220;43.192;23.284;2023-03-01T11:38:35;25.55;;;12.60;;
10347;SDS011;5220;43.192;23.284;2023-03-01T11:41:06;10.50;;;7.22;;
10347;SDS011;5220;43.192;23.284;2023-03-01T11:43:36;9.00;;;5.10;;
10347;SDS011;5220;43.192;23.284;2023-03-01T11:49:44;5.90;;;4.90;;
10347;SDS011;5220;43.192;23.284;2023-03-01T11:52:28;4.85;;;4.35;;
10347;SDS011;5220;43.192;23.284;2023-03-01T11:55:11;5.53;;;5.03;;
10347;SDS011;5220;43.192;23.284;2023-03-01T11:57:51;4.68;;;4.22;;
10347;SDS011;5220;43.192;23.284;2023-03-01T12:00:37;5.53;;;4.32;;
10347;SDS011;5220;43.192;23.284;2023-03-01T12:03:19;4.80;;;4.20;;
10347;SDS011;5220;43.192;23.284;2023-03-01T12:05:58;4.10;;;3.60;;
10347;SDS011;5220;43.192;23.284;2023-03-01T12:08:43;10.57;;;6.82;;
10347;SDS011;5220;43.192;23.284;2023-03-01T12:11:18;9.95;;;6.78;;
10347;SDS011;5220;43.192;23.284;2023-03-01T12:16:53;8.25;;;5.30;;
10347;SDS011;5220;43.192;23.284;2023-03-01T12:19:44;6.28;;;5.68;;
10347;SDS011;5220;43.192;23.284;2023-03-01T12:22:35;12.95;;;8.35;;
10347;SDS011;5220;43.192;23.284;2023-03-01T12:25:23;7.53;;;6.45;;
10347;SDS011;5220;43.192;23.284;2023-03-01T12:28:01;7.88;;;6.63;;
10347;SDS011;5220;43.192;23.284;2023-03-01T12:30:42;6.72;;;6.13;;
10347;SDS011;5220;43.192;23.284;2023-03-01T12:33:26;10.38;;;8.60;;
10347;SDS011;5220;43.192;23.284;2023-03-01T12:36:10;7.97;;;7.18;;
10347;SDS011;5220;43.192;23.284;2023-03-01T12:38:46;8.50;;;7.55;;
10347;SDS011;5220;43.192;23.284;2023-03-01T12:41:29;7.95;;;6.57;;
10347;SDS011;5220;43.192;23.284;2023-03-01T12:44:12;9.98;;;8.98;;
10347;SDS011;5220;43.192;23.284;2023-03-01T12:46:52;10.43;;;9.13;;
10347;SDS011;5220;43.192;23.284;2023-03-01T12:49:30;9.77;;;8.20;;
10347;SDS011;5220;43.192;23.284;2023-03-01T12:52:03;9.02;;;7.35;;
10347;SDS011;5220;43.192;23.284;2023-03-01T12:54:39;6.85;;;6.20;;
10347;SDS011;5220;43.192;23.284;2023-03-01T12:57:11;4.78;;;4.28;;
10347;SDS011;5220;43.192;23.284;2023-03-01T12:59:43;6.60;;;6.00;;
10347;SDS011;5220;43.192;23.284;2023-03-01T13:02:19;4.88;;;4.32;;
10347;SDS011;5220;43.192;23.284;2023-03-01T13:04:58;8.98;;;7.65;;
10347;SDS011;5220;43.192;23.284;2023-03-01T13:07:34;6.10;;;4.40;;
10347;SDS011;5220;43.192;23.284;2023-03-01T13:10:19;5.43;;;4.22;;
10347;SDS011;5220;43.192;23.284;2023-03-01T13:13:00;7.80;;;5.85;;
10347;SDS011;5220;43.192;23.284;2023-03-01T13:15:33;7.13;;;6.32;;
10347;SDS011;5220;43.192;23.284;2023-03-01T13:18:02;6.35;;;5.68;;
10347;SDS011;5220;43.192;23.284;2023-03-01T13:20:50;7.95;;;6.38;;
10347;SDS011;5220;43.192;23.284;2023-03-01T13:23:25;5.80;;;5.20;;
10347;SDS011;5220;43.192;23.284;2023-03-01T13:26:05;6.30;;;5.72;;
10347;SDS011;5220;43.192;23.284;2023-03-01T13:37:19;8.48;;;7.55;;
10347;SDS011;5220;43.192;23.284;2023-03-01T13:39:48;9.82;;;7.35;;
10347;SDS011;5220;43.192;23.284;2023-03-01T13:42:38;12.10;;;8.98;;
10347;SDS011;5220;43.192;23.284;2023-03-01T13:45:21;15.77;;;9.15;;
10347;SDS011;5220;43.192;23.284;2023-03-01T13:47:56;10.85;;;8.38;;
10347;SDS011;5220;43.192;23.284;2023-03-01T13:50:25;9.07;;;6.97;;
10347;SDS011;5220;43.192;23.284;2023-03-01T13:52:55;9.85;;;5.75;;
10347;SDS011;5220;43.192;23.284;2023-03-01T13:55:25;25.60;;;6.93;;
10347;SDS011;5220;43.192;23.284;2023-03-01T13:58:04;18.10;;;6.07;;
10347;SDS011;5220;43.192;23.284;2023-03-01T14:00:40;90.13;;;11.90;;
10347;SDS011;5220;43.192;23.284;2023-03-01T14:03:11;57.30;;;8.38;;
10347;SDS011;5220;43.192;23.284;2023-03-01T14:05:40;19.73;;;8.48;;
10347;SDS011;5220;43.192;23.284;2023-03-01T14:08:21;18.45;;;7.53;;
10347;SDS011;5220;43.192;23.284;2023-03-01T14:16:59;8.57;;;6.38;;
10347;SDS011;5220;43.192;23.284;2023-03-01T14:19:36;8.30;;;6.30;;
10347;SDS011;5220;43.192;23.284;2023-03-01T14:22:05;10.48;;;6.57;;
10347;SDS011;5220;43.192;23.284;2023-03-01T14:24:44;22.67;;;10.52;;
10347;SDS011;5220;43.192;23.284;2023-03-01T14:27:15;12.88;;;7.97;;
10347;SDS011;5220;43.192;23.284;2023-03-01T14:29:42;13.25;;;7.28;;
10347;SDS011;5220;43.192;23.284;2023-03-01T14:32:12;10.15;;;7.10;;
10347;SDS011;5220;43.192;23.284;2023-03-01T14:34:45;7.10;;;5.97;;
10347;SDS011;5220;43.192;23.284;2023-03-01T14:37:17;8.98;;;6.47;;
10347;SDS011;5220;43.192;23.284;2023-03-01T14:39:46;12.20;;;9.13;;
10347;SDS011;5220;43.192;23.284;2023-03-01T14:42:13;13.95;;;8.60;;
10347;SDS011;5220;43.192;23.284;2023-03-01T14:44:41;13.00;;;8.35;;
10347;SDS011;5220;43.192;23.284;2023-03-01T14:47:12;10.52;;;7.63;;
10347;SDS011;5220;43.192;23.284;2023-03-01T14:49:41;11.80;;;8.52;;
10347;SDS011;5220;43.192;23.284;2023-03-01T14:52:17;11.10;;;8.18;;
10347;SDS011;5220;43.192;23.284;2023-03-01T14:54:47;14.80;;;11.23;;
10347;SDS011;5220;43.192;23.284;2023-03-01T14:57:18;15.80;;;11.65;;
10347;SDS011;5220;43.192;23.284;2023-03-01T14:59:46;12.13;;;9.27;;
10347;SDS011;5220;43.192;23.284;2023-03-01T15:02:17;10.23;;;8.80;;
10347;SDS011;5220;43.192;23.284;2023-03-01T15:04:47;13.18;;;8.85;;
10347;SDS011;5220;43.192;23.284;2023-03-01T15:07:15;10.68;;;7.28;;
10347;SDS011;5220;43.192;23.284;2023-03-01T15:09:43;14.80;;;10.90;;
10347;SDS011;5220;43.192;23.284;2023-03-01T15:15:18;10.35;;;8.98;;
10347;SDS011;5220;43.192;23.284;2023-03-01T15:17:58;15.90;;;10.40;;
10347;SDS011;5220;43.192;23.284;2023-03-01T15:20:27;17.45;;;11.90;;
10347;SDS011;5220;43.192;23.284;2023-03-01T15:22:57;21.58;;;11.38;;
10347;SDS011;5220;43.192;23.284;2023-03-01T15:25:26;17.38;;;12.57;;